Bookmark and Share
Track history (hours):
 

Glory Ocean

Last reported at 2014-Apr-01 01:24 UTC. Time now 2014-Apr-20 03:18 UTC.
Position N 35°58' W 005°36'.
Warning: this ship's position is 19 days out of date.

Length 139 m; draft 9.2 m.

Type: Cargo ship. MMSI: 564700000.

NotesDate/timePositionNaut miles runAvg speedWind from/ knotsBaromVisibWave heightAir tempDewpointWater temp
2014-Apr-01 01:24N 35°58' W 005°36'910.4
2014-Apr-01 00:34N 35°60' W 005°25'10 9.8
2014-Mar-31 23:34N 36°02' W 005°14'22411.2
2014-Mar-31 03:33N 37°21' W 000°52'1212.0
2014-Mar-31 02:33N 37°29' W 000°41'1211.9
2014-Mar-31 01:33N 37°38' W 000°30'1211.6
2014-Mar-31 00:33N 37°48' W 000°23'1111.4
2014-Mar-30 23:33N 37°57' W 000°15'1211.4
2014-Mar-30 22:33N 38°07' W 000°07'1211.6
2014-Mar-30 21:33N 38°16' E 000°01'11411.4
2014-Mar-30 11:33N 40°03' E 000°54'1211.1
2014-Mar-30 10:30N 40°14' E 000°51'  
2014-Mar-27 22:03N 40°34' E 000°33'0 0.0
2014-Mar-27 21:33N 40°34' E 000°33'0 0.0
2014-Mar-27 19:22N 40°34' E 000°33'0 0.0
2014-Mar-27 17:15N 40°34' E 000°33'33 5.3
2014-Mar-27 11:06N 40°06' E 000°54'12310.6
2014-Mar-26 23:33N 38°10' E 000°00'3612.1
2014-Mar-26 20:33N 37°40' W 000°25'1211.6
2014-Mar-26 19:33N 37°31' W 000°34'2311.2
2014-Mar-26 17:32N 37°15' W 000°55'21811.5
2014-Mar-25 22:34N 36°00' W 005°10'1111.0
2014-Mar-25 21:33N 35°59' W 005°24'1413.0
2014-Mar-25 20:28N 35°56' W 005°41'1513.3
2014-Mar-25 19:20N 35°53' W 005°59'  

Dump ship's entire track history

sailing weather and tide predictions

Glory Ocean — 9VDE7 — position and weather